MDT,Max TemperatureF,Mean TemperatureF,Min TemperatureF,Max Dew PointF,MeanDew PointF,Min DewpointF,Max Humidity, Mean Humidity, Min Humidity, Max Sea Level PressureIn, Mean Sea Level PressureIn, Min Sea Level PressureIn, Max VisibilityMiles, Mean VisibilityMiles, Min VisibilityMiles, Max Wind SpeedMPH, Mean Wind SpeedMPH, Max Gust SpeedMPH,PrecipitationIn, CloudCover, Events, WindDirDegrees
2013-6-1,70,58,45,45,41,34,93,60,26,30.19,30.10,29.96,10,10,10,28,17,37,T,5,Rain,329
2013-6-2,83,62,41,45,41,38,89,55,21,30.15,29.90,29.69,10,10,10,25,14,31,0.00,0,,130
2013-6-3,89,70,50,51,45,28,77,45,12,29.80,29.64,29.56,10,10,10,28,14,37,0.00,0,,74
2013-6-4,75,62,48,50,42,37,83,57,31,30.16,29.99,29.83,10,10,9,24,10,31,0.06,4,Rain,355
2013-6-5,72,58,43,46,39,36,86,57,28,30.20,30.11,30.03,10,10,10,16,9,22,0.00,4,,340
2013-6-6,82,64,45,47,41,36,92,56,20,30.07,30.00,29.93,10,10,10,23,8,26,0.00,0,,84
2013-6-7,86,66,46,57,48,43,86,56,25,30.01,29.83,29.61,10,10,2,31,8,43,0.13,1,Rain-Thunderstorm,143
2013-6-8,78,65,52,56,47,40,93,62,31,29.91,29.75,29.55,10,10,7,35,14,45,0.10,3,Rain,350
2013-6-9,85,66,46,51,46,42,93,59,24,29.94,29.85,29.75,10,10,10,18,7,25,0.00,0,,131
2013-6-10,99,78,57,55,47,40,72,43,14,29.82,29.70,29.63,10,10,8,31,8,40,T,0,Thunderstorm,122
2013-6-11,96,79,62,63,58,50,81,52,22,29.82,29.68,29.57,10,10,10,21,9,31,T,0,Rain-Thunderstorm,66
2013-6-12,89,73,56,61,53,46,97,62,26,30.02,29.94,29.78,10,10,9,25,10,31,0.00,0,Rain,25
2013-6-13,85,69,53,55,51,48,89,62,34,30.15,29.95,29.75,10,10,10,23,14,29,0.00,1,,130
2013-6-14,92,78,64,54,47,35,63,39,14,29.87,29.77,29.67,10,10,10,28,15,43,T,1,Rain,268
2013-6-15,82,69,56,56,51,46,86,61,36,29.97,29.92,29.82,10,10,10,24,9,30,T,1,Rain,109
2013-6-16,93,76,58,61,53,38,93,54,15,30.00,29.91,29.82,10,10,7,30,12,37,0.00,0,,110
2013-6-17,84,69,54,54,51,46,93,62,30,30.19,30.02,29.94,10,10,4,30,12,37,0.25,1,Rain-Thunderstorm,104
2013-6-18,86,70,53,57,54,51,93,64,34,30.04,29.93,29.79,10,10,7,32,11,37,0.28,2,Rain-Thunderstorm,89
2013-6-19,93,75,56,62,58,54,100,64,28,29.84,29.67,29.53,10,10,9,30,17,39,T,0,,130
2013-6-20,89,75,61,62,51,32,97,56,15,29.75,29.70,29.57,10,10,8,26,10,35,0.00,0,,34
2013-6-21,86,74,62,66,58,43,93,61,28,29.88,29.75,29.62,10,10,7,38,11,51,T,2,Rain-Thunderstorm,51
2013-6-22,83,68,53,64,56,48,93,70,47,29.95,29.80,29.68,10,9,1,38,9,45,0.72,4,Rain-Thunderstorm,61
2013-6-23,79,65,51,59,53,50,96,68,39,29.94,29.83,29.73,10,10,10,23,10,28,0.00,0,,95
2013-6-24,94,78,61,58,53,46,73,47,21,29.70,29.62,29.52,10,10,10,26,11,33,0.00,0,Thunderstorm,134
2013-6-25,90,77,63,65,52,44,93,58,22,29.81,29.70,29.61,10,10,9,24,9,32,0.00,0,,314
2013-6-26,98,76,54,58,52,45,87,52,17,29.89,29.84,29.80,10,10,10,15,4,22,0.00,0,,111
2013-6-27,94,78,62,57,53,48,78,51,23,30.09,30.00,29.85,10,10,10,17,6,23,0.00,0,,55
2013-6-28,93,78,62,57,54,52,78,52,26,30.12,30.07,29.99,10,10,10,15,7,18,0.00,0,,71
2013-6-29,92,76,59,56,53,47,78,53,27,30.09,30.04,29.96,10,10,10,20,7,25,0.00,2,,37
2013-6-30,86,72,58,54,50,48,72,51,29,30.11,30.06,30.02,10,10,10,16,7,20,0.00,1,,104